Skagway, AK

3:15 AM AKDT on November 01, 2014 (GMT -0800)
Skagway | Change Station
CLOSE
Current Station
Airport
Location: Skagway,
Elevation: 16 ft
Nearby Weather Stations
Active Advisory: Winter Weather Advisory

Elev 16 ft 59.46 °N, 135.32 °W | Updated 22 minutes ago

Light Rain
Light Rain
39 °F
Feels Like 39 °F
N
0
Wind Variable Wind from North

Today
High -- | Low -- °F
--% Chance of Precip.
Yesterday
High -- | Low -- °F
Precip. -- in
8:21 AM 5:06 PM
Waxing Gibbous, 65% visible
Pressure 29.41 in
Visibility 8.0 miles
Clouds Few 1800 ft
Overcast 2500 ft
Dew Point 36 °F
Humidity 89%
Rainfall 0.04 in
Snow Depth Not available.
UV 0 out of 12
Pollen Not available.
Air Quality Not available.
Flu Activity Not available.
METAR PAGY 011053Z AUTO 00000KT 8SM -RA FEW018 OVC025 04/02 A2941 RMK AO2 SLP959 P0003 T00390022 TSNO

More Conditions Fewer Conditions

Pressure 29.41 in
Visibility 8.0 miles
Clouds Few 1800 ft
Overcast 2500 ft
Dew Point 36 °F
Humidity 89%
Rainfall 0.04 in
Snow Depth Not available.
UV 0 out of 12
Pollen Not available.
Air Quality Not available.
Flu Activity Not available.
METAR PAGY 011053Z AUTO 00000KT 8SM -RA FEW018 OVC025 04/02 A2941 RMK AO2 SLP959 P0003 T00390022 TSNO

More Conditions Fewer Conditions

10-Day Weather Forecast

Almanac

Astronomy

Nov. 01, 2014 Rise Set
Actual Time
Civil Twilight
Nautical Twilight
Astronomical Twilight
Moon
Length of Visible Light
Length of Day
Tomorrow will be .
, % of the Moon is Illuminated

Today's Extremes

State Highs State Lows

Community

WunderPhotos

Upload Photos

1,766,878 photos uploaded!

WunderBlogs® & News

Nearby

Air Quality

  Air Quality AQ Index Pollutant
Not available.

Snow Depth

Station Depth Elevation

Earthquake Activity

City Distance Mag. Time & Date
Minimum magnitude displayed is 2.5.

Coastal Water Temperatures

Place Temperature

Nearby Weather Stations